sensor_id;sensor_type;location;lat;lon;timestamp;temperature;humidity
50570;DHT22;36525;49.398;7.614;2022-10-15T00:01:25;14.40;99.90
50570;DHT22;36525;49.398;7.614;2022-10-15T00:03:52;14.50;99.90
50570;DHT22;36525;49.398;7.614;2022-10-15T00:06:20;14.50;99.90
50570;DHT22;36525;49.398;7.614;2022-10-15T00:08:47;14.50;99.90
50570;DHT22;36525;49.398;7.614;2022-10-15T00:11:19;14.50;99.90
50570;DHT22;36525;49.398;7.614;2022-10-15T00:13:48;14.50;99.90
50570;DHT22;36525;49.398;7.614;2022-10-15T00:16:18;14.60;99.90
50570;DHT22;36525;49.398;7.614;2022-10-15T00:18:47;14.60;99.90
50570;DHT22;36525;49.398;7.614;2022-10-15T00:21:17;14.60;99.90
50570;DHT22;36525;49.398;7.614;2022-10-15T00:23:45;14.60;99.90
50570;DHT22;36525;49.398;7.614;2022-10-15T00:26:15;14.60;99.90
50570;DHT22;36525;49.398;7.614;2022-10-15T00:28:44;14.60;99.90
50570;DHT22;36525;49.398;7.614;2022-10-15T00:31:14;14.60;99.90
50570;DHT22;36525;49.398;7.614;2022-10-15T00:33:43;14.70;99.90
50570;DHT22;36525;49.398;7.614;2022-10-15T00:36:16;14.60;99.90
50570;DHT22;36525;49.398;7.614;2022-10-15T00:38:44;14.70;99.90
50570;DHT22;36525;49.398;7.614;2022-10-15T00:41:18;14.70;99.90
50570;DHT22;36525;49.398;7.614;2022-10-15T00:43:59;14.70;99.90
50570;DHT22;36525;49.398;7.614;2022-10-15T00:46:40;14.70;99.90
50570;DHT22;36525;49.398;7.614;2022-10-15T00:49:47;14.70;99.90
50570;DHT22;36525;49.398;7.614;2022-10-15T00:52:14;14.70;99.90
50570;DHT22;36525;49.398;7.614;2022-10-15T00:54:49;14.80;99.90
50570;DHT22;36525;49.398;7.614;2022-10-15T00:57:23;14.80;99.90
50570;DHT22;36525;49.398;7.614;2022-10-15T00:59:53;14.80;99.90
50570;DHT22;36525;49.398;7.614;2022-10-15T01:02:23;14.80;99.90
50570;DHT22;36525;49.398;7.614;2022-10-15T01:04:51;14.80;99.90
50570;DHT22;36525;49.398;7.614;2022-10-15T01:07:19;14.80;99.90
50570;DHT22;36525;49.398;7.614;2022-10-15T01:09:46;14.90;99.90
50570;DHT22;36525;49.398;7.614;2022-10-15T01:12:27;14.90;99.90
50570;DHT22;36525;49.398;7.614;2022-10-15T01:15:14;14.90;99.90
50570;DHT22;36525;49.398;7.614;2022-10-15T01:17:51;14.90;99.90
50570;DHT22;36525;49.398;7.614;2022-10-15T01:20:50;14.90;99.90
50570;DHT22;36525;49.398;7.614;2022-10-15T01:37:29;15.00;99.90
50570;DHT22;36525;49.398;7.614;2022-10-15T01:43:02;15.00;99.90
50570;DHT22;36525;49.398;7.614;2022-10-15T01:45:39;15.00;99.90
50570;DHT22;36525;49.398;7.614;2022-10-15T01:48:09;15.00;99.90
50570;DHT22;36525;49.398;7.614;2022-10-15T01:50:46;15.10;99.90
50570;DHT22;36525;49.398;7.614;2022-10-15T01:53:18;15.10;99.90
50570;DHT22;36525;49.398;7.614;2022-10-15T01:55:59;15.10;99.90
50570;DHT22;36525;49.398;7.614;2022-10-15T01:58:29;15.10;99.90
50570;DHT22;36525;49.398;7.614;2022-10-15T02:00:57;15.10;99.90
50570;DHT22;36525;49.398;7.614;2022-10-15T02:03:25;15.10;99.90
50570;DHT22;36525;49.398;7.614;2022-10-15T02:06:09;15.10;99.90
50570;DHT22;36525;49.398;7.614;2022-10-15T02:08:47;15.10;99.90
50570;DHT22;36525;49.398;7.614;2022-10-15T02:11:19;15.10;99.90
50570;DHT22;36525;49.398;7.614;2022-10-15T02:14:09;15.10;99.90
50570;DHT22;36525;49.398;7.614;2022-10-15T02:16:45;15.10;99.90
50570;DHT22;36525;49.398;7.614;2022-10-15T02:19:29;15.10;99.90
50570;DHT22;36525;49.398;7.614;2022-10-15T02:22:05;15.10;99.90
50570;DHT22;36525;49.398;7.614;2022-10-15T02:24:43;15.10;99.90
50570;DHT22;36525;49.398;7.614;2022-10-15T02:27:21;15.20;99.90
50570;DHT22;36525;49.398;7.614;2022-10-15T02:29:50;15.20;99.90
50570;DHT22;36525;49.398;7.614;2022-10-15T02:32:20;15.20;99.90
50570;DHT22;36525;49.398;7.614;2022-10-15T02:34:49;15.20;99.90
50570;DHT22;36525;49.398;7.614;2022-10-15T02:37:21;15.20;99.90
50570;DHT22;36525;49.398;7.614;2022-10-15T02:39:49;15.20;99.90
50570;DHT22;36525;49.398;7.614;2022-10-15T02:42:16;15.10;99.90
50570;DHT22;36525;49.398;7.614;2022-10-15T02:44:44;15.10;99.90
50570;DHT22;36525;49.398;7.614;2022-10-15T02:47:11;15.10;99.90
50570;DHT22;36525;49.398;7.614;2022-10-15T02:49:38;15.10;99.90
50570;DHT22;36525;49.398;7.614;2022-10-15T02:52:06;15.00;99.90
50570;DHT22;36525;49.398;7.614;2022-10-15T02:54:32;15.00;99.90
50570;DHT22;36525;49.398;7.614;2022-10-15T02:56:59;15.00;99.90
50570;DHT22;36525;49.398;7.614;2022-10-15T02:59:26;15.00;99.90
50570;DHT22;36525;49.398;7.614;2022-10-15T03:01:53;15.00;99.90
50570;DHT22;36525;49.398;7.614;2022-10-15T03:04:20;15.00;99.90
50570;DHT22;36525;49.398;7.614;2022-10-15T03:06:48;15.00;99.90
50570;DHT22;36525;49.398;7.614;2022-10-15T03:09:14;14.90;99.90
50570;DHT22;36525;49.398;7.614;2022-10-15T03:11:41;14.90;99.90
50570;DHT22;36525;49.398;7.614;2022-10-15T03:14:08;14.90;99.90
50570;DHT22;36525;49.398;7.614;2022-10-15T03:16:35;14.90;99.90
50570;DHT22;36525;49.398;7.614;2022-10-15T03:19:02;14.90;99.90
50570;DHT22;36525;49.398;7.614;2022-10-15T03:21:29;14.80;99.90
50570;DHT22;36525;49.398;7.614;2022-10-15T03:23:57;14.80;99.90
50570;DHT22;36525;49.398;7.614;2022-10-15T03:26:24;14.90;99.90
50570;DHT22;36525;49.398;7.614;2022-10-15T03:28:52;14.90;99.90
50570;DHT22;36525;49.398;7.614;2022-10-15T03:31:19;14.90;99.90
50570;DHT22;36525;49.398;7.614;2022-10-15T03:33:45;14.80;99.90
50570;DHT22;36525;49.398;7.614;2022-10-15T03:36:12;14.90;99.90
50570;DHT22;36525;49.398;7.614;2022-10-15T03:38:39;14.80;99.90
50570;DHT22;36525;49.398;7.614;2022-10-15T03:41:06;14.80;99.90
50570;DHT22;36525;49.398;7.614;2022-10-15T03:43:33;14.80;99.90
50570;DHT22;36525;49.398;7.614;2022-10-15T03:46:05;14.80;99.90
50570;DHT22;36525;49.398;7.614;2022-10-15T03:48:32;14.80;99.90
50570;DHT22;36525;49.398;7.614;2022-10-15T03:50:59;14.80;99.90
50570;DHT22;36525;49.398;7.614;2022-10-15T03:53:26;14.80;99.90
50570;DHT22;36525;49.398;7.614;2022-10-15T03:55:53;14.80;99.90
50570;DHT22;36525;49.398;7.614;2022-10-15T03:58:20;14.80;99.90
50570;DHT22;36525;49.398;7.614;2022-10-15T04:00:47;14.80;99.90
50570;DHT22;36525;49.398;7.614;2022-10-15T04:03:14;14.80;99.90
50570;DHT22;36525;49.398;7.614;2022-10-15T04:05:41;14.80;99.90
50570;DHT22;36525;49.398;7.614;2022-10-15T04:08:07;14.80;99.90
50570;DHT22;36525;49.398;7.614;2022-10-15T04:10:34;14.90;99.90
50570;DHT22;36525;49.398;7.614;2022-10-15T04:13:01;14.90;99.90
50570;DHT22;36525;49.398;7.614;2022-10-15T04:15:28;14.80;99.90
50570;DHT22;36525;49.398;7.614;2022-10-15T04:17:55;14.90;99.90
50570;DHT22;36525;49.398;7.614;2022-10-15T04:20:22;14.80;99.90
50570;DHT22;36525;49.398;7.614;2022-10-15T04:22:49;14.90;99.90
50570;DHT22;36525;49.398;7.614;2022-10-15T04:25:16;14.80;99.90
50570;DHT22;36525;49.398;7.614;2022-10-15T04:27:43;14.90;99.90
50570;DHT22;36525;49.398;7.614;2022-10-15T04:30:11;14.90;99.90
50570;DHT22;36525;49.398;7.614;2022-10-15T04:32:38;14.90;99.90
50570;DHT22;36525;49.398;7.614;2022-10-15T04:35:05;14.90;99.90
50570;DHT22;36525;49.398;7.614;2022-10-15T04:37:33;14.90;99.90
50570;DHT22;36525;49.398;7.614;2022-10-15T04:40:00;14.90;99.90
50570;DHT22;36525;49.398;7.614;2022-10-15T04:42:30;14.90;99.90
50570;DHT22;36525;49.398;7.614;2022-10-15T04:44:57;14.90;99.90
50570;DHT22;36525;49.398;7.614;2022-10-15T04:47:24;14.90;99.90
50570;DHT22;36525;49.398;7.614;2022-10-15T04:49:51;14.90;99.90
50570;DHT22;36525;49.398;7.614;2022-10-15T04:52:18;14.90;99.90
50570;DHT22;36525;49.398;7.614;2022-10-15T04:54:45;14.90;99.90
50570;DHT22;36525;49.398;7.614;2022-10-15T04:57:12;14.90;99.90
50570;DHT22;36525;49.398;7.614;2022-10-15T04:59:39;14.90;99.90
50570;DHT22;36525;49.398;7.614;2022-10-15T05:02:06;14.80;99.90
50570;DHT22;36525;49.398;7.614;2022-10-15T05:04:33;14.90;99.90
50570;DHT22;36525;49.398;7.614;2022-10-15T05:07:00;14.90;99.90
50570;DHT22;36525;49.398;7.614;2022-10-15T05:09:27;14.90;99.90
50570;DHT22;36525;49.398;7.614;2022-10-15T05:11:54;14.80;99.90
50570;DHT22;36525;49.398;7.614;2022-10-15T05:14:21;14.80;99.90
50570;DHT22;36525;49.398;7.614;2022-10-15T05:16:49;14.80;99.90
50570;DHT22;36525;49.398;7.614;2022-10-15T05:19:15;14.80;99.90
50570;DHT22;36525;49.398;7.614;2022-10-15T05:21:43;14.70;99.90
50570;DHT22;36525;49.398;7.614;2022-10-15T05:24:10;14.60;99.90
50570;DHT22;36525;49.398;7.614;2022-10-15T05:26:37;14.60;99.90
50570;DHT22;36525;49.398;7.614;2022-10-15T05:29:04;14.60;99.90
50570;DHT22;36525;49.398;7.614;2022-10-15T05:31:32;14.50;99.90
50570;DHT22;36525;49.398;7.614;2022-10-15T05:34:05;14.40;99.90
50570;DHT22;36525;49.398;7.614;2022-10-15T05:36:33;14.40;99.90
50570;DHT22;36525;49.398;7.614;2022-10-15T05:39:02;14.40;99.90
50570;DHT22;36525;49.398;7.614;2022-10-15T05:41:30;14.40;99.90
50570;DHT22;36525;49.398;7.614;2022-10-15T05:43:57;14.30;99.90
50570;DHT22;36525;49.398;7.614;2022-10-15T05:46:25;14.20;99.90
50570;DHT22;36525;49.398;7.614;2022-10-15T05:48:54;14.20;99.90
50570;DHT22;36525;49.398;7.614;2022-10-15T05:51:23;14.20;99.90
50570;DHT22;36525;49.398;7.614;2022-10-15T05:53:52;14.20;99.90
50570;DHT22;36525;49.398;7.614;2022-10-15T05:56:19;14.20;99.90
50570;DHT22;36525;49.398;7.614;2022-10-15T05:58:46;14.20;99.90
50570;DHT22;36525;49.398;7.614;2022-10-15T06:01:14;14.20;99.90
50570;DHT22;36525;49.398;7.614;2022-10-15T06:03:42;14.20;99.90
50570;DHT22;36525;49.398;7.614;2022-10-15T06:06:14;14.20;99.90
50570;DHT22;36525;49.398;7.614;2022-10-15T06:08:46;14.20;99.90
50570;DHT22;36525;49.398;7.614;2022-10-15T06:11:13;14.20;99.90
50570;DHT22;36525;49.398;7.614;2022-10-15T06:13:42;14.20;99.90
50570;DHT22;36525;49.398;7.614;2022-10-15T06:16:10;14.20;99.90
50570;DHT22;36525;49.398;7.614;2022-10-15T06:18:38;14.20;99.90
50570;DHT22;36525;49.398;7.614;2022-10-15T06:21:06;14.20;99.90
50570;DHT22;36525;49.398;7.614;2022-10-15T06:23:34;14.20;99.90
50570;DHT22;36525;49.398;7.614;2022-10-15T06:26:02;14.20;99.90
50570;DHT22;36525;49.398;7.614;2022-10-15T06:28:31;14.20;99.90
50570;DHT22;36525;49.398;7.614;2022-10-15T06:30:59;14.20;99.90
50570;DHT22;36525;49.398;7.614;2022-10-15T06:33:27;14.20;99.90
50570;DHT22;36525;49.398;7.614;2022-10-15T06:35:54;14.20;99.90
50570;DHT22;36525;49.398;7.614;2022-10-15T06:38:21;14.20;99.90
50570;DHT22;36525;49.398;7.614;2022-10-15T06:40:50;14.20;99.90
50570;DHT22;36525;49.398;7.614;2022-10-15T06:43:17;14.20;99.90
50570;DHT22;36525;49.398;7.614;2022-10-15T06:45:44;14.20;99.90
50570;DHT22;36525;49.398;7.614;2022-10-15T06:48:11;14.20;99.90
50570;DHT22;36525;49.398;7.614;2022-10-15T06:50:38;14.30;99.90
50570;DHT22;36525;49.398;7.614;2022-10-15T06:53:05;14.30;99.90
50570;DHT22;36525;49.398;7.614;2022-10-15T06:55:33;14.30;99.90
50570;DHT22;36525;49.398;7.614;2022-10-15T06:58:01;14.30;99.90
50570;DHT22;36525;49.398;7.614;2022-10-15T07:00:28;14.30;99.90
50570;DHT22;36525;49.398;7.614;2022-10-15T07:02:55;14.30;99.90
50570;DHT22;36525;49.398;7.614;2022-10-15T07:05:22;14.30;99.90
50570;DHT22;36525;49.398;7.614;2022-10-15T07:07:53;14.30;99.90
50570;DHT22;36525;49.398;7.614;2022-10-15T07:10:22;14.30;99.90
50570;DHT22;36525;49.398;7.614;2022-10-15T07:12:49;14.40;99.90
50570;DHT22;36525;49.398;7.614;2022-10-15T07:15:16;14.30;99.90
50570;DHT22;36525;49.398;7.614;2022-10-15T07:17:52;14.30;99.90
50570;DHT22;36525;49.398;7.614;2022-10-15T07:20:30;14.40;99.90
50570;DHT22;36525;49.398;7.614;2022-10-15T07:22:58;14.40;99.90
50570;DHT22;36525;49.398;7.614;2022-10-15T07:25:27;14.40;99.90
50570;DHT22;36525;49.398;7.614;2022-10-15T07:27:55;14.40;99.90
50570;DHT22;36525;49.398;7.614;2022-10-15T07:30:24;14.40;99.90
50570;DHT22;36525;49.398;7.614;2022-10-15T07:32:58;14.50;99.90
50570;DHT22;36525;49.398;7.614;2022-10-15T07:35:26;14.50;99.90
50570;DHT22;36525;49.398;7.614;2022-10-15T07:37:53;14.50;99.90
50570;DHT22;36525;49.398;7.614;2022-10-15T07:40:20;14.60;99.90
50570;DHT22;36525;49.398;7.614;2022-10-15T07:42:55;14.60;99.90
50570;DHT22;36525;49.398;7.614;2022-10-15T07:45:23;14.60;99.90
50570;DHT22;36525;49.398;7.614;2022-10-15T07:47:51;14.60;99.90
50570;DHT22;36525;49.398;7.614;2022-10-15T07:50:19;14.70;99.90
50570;DHT22;36525;49.398;7.614;2022-10-15T07:52:46;14.80;99.90
50570;DHT22;36525;49.398;7.614;2022-10-15T07:55:13;14.80;99.90
50570;DHT22;36525;49.398;7.614;2022-10-15T07:57:40;14.70;99.90
50570;DHT22;36525;49.398;7.614;2022-10-15T08:00:08;14.60;99.90
50570;DHT22;36525;49.398;7.614;2022-10-15T08:02:35;14.60;99.90
50570;DHT22;36525;49.398;7.614;2022-10-15T08:05:02;14.60;99.90
50570;DHT22;36525;49.398;7.614;2022-10-15T08:07:29;14.60;99.90
50570;DHT22;36525;49.398;7.614;2022-10-15T08:09:56;14.60;99.90
50570;DHT22;36525;49.398;7.614;2022-10-15T08:12:23;14.70;99.90
50570;DHT22;36525;49.398;7.614;2022-10-15T08:14:50;14.80;99.90
50570;DHT22;36525;49.398;7.614;2022-10-15T08:17:17;14.80;99.90
50570;DHT22;36525;49.398;7.614;2022-10-15T08:19:47;14.80;99.90
50570;DHT22;36525;49.398;7.614;2022-10-15T08:22:14;14.80;99.90
50570;DHT22;36525;49.398;7.614;2022-10-15T08:24:41;14.80;99.90
50570;DHT22;36525;49.398;7.614;2022-10-15T08:27:08;14.70;99.90
50570;DHT22;36525;49.398;7.614;2022-10-15T08:29:35;14.70;99.90
50570;DHT22;36525;49.398;7.614;2022-10-15T08:32:02;14.70;99.90
50570;DHT22;36525;49.398;7.614;2022-10-15T08:34:29;14.70;99.90
50570;DHT22;36525;49.398;7.614;2022-10-15T08:36:56;14.80;99.90
50570;DHT22;36525;49.398;7.614;2022-10-15T08:39:23;14.80;99.90
50570;DHT22;36525;49.398;7.614;2022-10-15T08:41:54;14.90;99.90
50570;DHT22;36525;49.398;7.614;2022-10-15T08:44:29;14.90;99.90
50570;DHT22;36525;49.398;7.614;2022-10-15T08:47:04;15.00;99.90
50570;DHT22;36525;49.398;7.614;2022-10-15T08:49:53;15.10;99.90
50570;DHT22;36525;49.398;7.614;2022-10-15T08:54:59;15.10;99.90
50570;DHT22;36525;49.398;7.614;2022-10-15T09:01:12;15.00;99.90
50570;DHT22;36525;49.398;7.614;2022-10-15T09:03:54;15.00;99.90
50570;DHT22;36525;49.398;7.614;2022-10-15T09:06:38;15.00;99.90
50570;DHT22;36525;49.398;7.614;2022-10-15T09:09:27;15.00;99.90
50570;DHT22;36525;49.398;7.614;2022-10-15T09:15:02;15.20;99.90
50570;DHT22;36525;49.398;7.614;2022-10-15T09:17:31;15.20;99.90
50570;DHT22;36525;49.398;7.614;2022-10-15T09:20:05;15.30;99.90
50570;DHT22;36525;49.398;7.614;2022-10-15T09:22:34;15.30;99.90
50570;DHT22;36525;49.398;7.614;2022-10-15T09:25:16;15.30;99.90
50570;DHT22;36525;49.398;7.614;2022-10-15T09:27:49;15.20;99.90
50570;DHT22;36525;49.398;7.614;2022-10-15T09:30:32;15.20;99.90
50570;DHT22;36525;49.398;7.614;2022-10-15T09:44:34;15.70;99.90
50570;DHT22;36525;49.398;7.614;2022-10-15T09:49:52;15.90;99.90
50570;DHT22;36525;49.398;7.614;2022-10-15T09:55:06;16.20;99.90
50570;DHT22;36525;49.398;7.614;2022-10-15T09:57:36;16.20;99.90
50570;DHT22;36525;49.398;7.614;2022-10-15T10:00:10;16.20;99.90
50570;DHT22;36525;49.398;7.614;2022-10-15T10:02:39;16.10;99.90
50570;DHT22;36525;49.398;7.614;2022-10-15T10:05:28;16.10;99.90
50570;DHT22;36525;49.398;7.614;2022-10-15T10:10:56;15.90;99.90
50570;DHT22;36525;49.398;7.614;2022-10-15T10:13:29;15.90;99.90
50570;DHT22;36525;49.398;7.614;2022-10-15T10:16:05;16.10;99.90
50570;DHT22;36525;49.398;7.614;2022-10-15T10:18:35;16.10;99.90
50570;DHT22;36525;49.398;7.614;2022-10-15T10:21:23;16.20;99.90
50570;DHT22;36525;49.398;7.614;2022-10-15T10:23:53;16.30;99.90
50570;DHT22;36525;49.398;7.614;2022-10-15T10:26:20;16.20;99.90
50570;DHT22;36525;49.398;7.614;2022-10-15T10:28:51;16.10;99.90
50570;DHT22;36525;49.398;7.614;2022-10-15T10:31:31;16.00;99.90
50570;DHT22;36525;49.398;7.614;2022-10-15T10:34:01;16.00;99.90
50570;DHT22;36525;49.398;7.614;2022-10-15T10:36:31;15.90;99.90
50570;DHT22;36525;49.398;7.614;2022-10-15T10:47:09;15.80;99.90
50570;DHT22;36525;49.398;7.614;2022-10-15T10:49:52;15.60;99.90
50570;DHT22;36525;49.398;7.614;2022-10-15T10:52:37;15.60;99.90
50570;DHT22;36525;49.398;7.614;2022-10-15T10:55:16;15.60;99.90
50570;DHT22;36525;49.398;7.614;2022-10-15T10:57:54;15.50;99.90
50570;DHT22;36525;49.398;7.614;2022-10-15T11:03:01;15.50;99.90
50570;DHT22;36525;49.398;7.614;2022-10-15T11:05:30;15.60;99.90
50570;DHT22;36525;49.398;7.614;2022-10-15T11:08:02;15.50;99.90
50570;DHT22;36525;49.398;7.614;2022-10-15T11:11:36;15.40;99.90
50570;DHT22;36525;49.398;7.614;2022-10-15T11:16:47;15.50;99.90
50570;DHT22;36525;49.398;7.614;2022-10-15T11:19:37;15.40;99.90
50570;DHT22;36525;49.398;7.614;2022-10-15T11:25:25;15.50;99.90
50570;DHT22;36525;49.398;7.614;2022-10-15T11:37:33;15.40;99.90
50570;DHT22;36525;49.398;7.614;2022-10-15T11:43:17;15.40;99.90
50570;DHT22;36525;49.398;7.614;2022-10-15T11:55:49;15.40;99.90
50570;DHT22;36525;49.398;7.614;2022-10-15T12:01:51;15.40;99.90
50570;DHT22;36525;49.398;7.614;2022-10-15T12:07:27;15.30;99.90
50570;DHT22;36525;49.398;7.614;2022-10-15T12:10:04;15.30;99.90
50570;DHT22;36525;49.398;7.614;2022-10-15T12:12:48;15.30;99.90
50570;DHT22;36525;49.398;7.614;2022-10-15T12:15:41;15.30;99.90
50570;DHT22;36525;49.398;7.614;2022-10-15T12:18:21;15.30;99.90
50570;DHT22;36525;49.398;7.614;2022-10-15T12:20:53;15.30;99.90
50570;DHT22;36525;49.398;7.614;2022-10-15T12:26:31;15.30;99.90
50570;DHT22;36525;49.398;7.614;2022-10-15T12:29:05;15.30;99.90
50570;DHT22;36525;49.398;7.614;2022-10-15T12:31:50;15.30;99.90
50570;DHT22;36525;49.398;7.614;2022-10-15T12:34:42;15.20;99.90
50570;DHT22;36525;49.398;7.614;2022-10-15T12:37:17;15.20;99.90
50570;DHT22;36525;49.398;7.614;2022-10-15T12:39:44;15.10;99.90
50570;DHT22;36525;49.398;7.614;2022-10-15T12:42:22;15.20;99.90
50570;DHT22;36525;49.398;7.614;2022-10-15T12:44:53;15.20;99.90
50570;DHT22;36525;49.398;7.614;2022-10-15T12:47:50;15.20;99.90
50570;DHT22;36525;49.398;7.614;2022-10-15T12:50:27;15.20;99.90
50570;DHT22;36525;49.398;7.614;2022-10-15T13:14:30;15.50;99.90
50570;DHT22;36525;49.398;7.614;2022-10-15T13:17:01;15.40;99.90
50570;DHT22;36525;49.398;7.614;2022-10-15T13:19:35;15.40;99.90
50570;DHT22;36525;49.398;7.614;2022-10-15T13:22:06;15.30;99.90
50570;DHT22;36525;49.398;7.614;2022-10-15T13:24:46;15.30;99.90
50570;DHT22;36525;49.398;7.614;2022-10-15T13:27:26;15.30;99.90
50570;DHT22;36525;49.398;7.614;2022-10-15T13:30:16;15.30;99.90
50570;DHT22;36525;49.398;7.614;2022-10-15T13:32:51;15.30;99.90
50570;DHT22;36525;49.398;7.614;2022-10-15T13:35:27;15.30;99.90
50570;DHT22;36525;49.398;7.614;2022-10-15T13:37:56;15.20;99.90
50570;DHT22;36525;49.398;7.614;2022-10-15T13:40:25;15.20;99.90
50570;DHT22;36525;49.398;7.614;2022-10-15T13:43:01;15.20;99.90
50570;DHT22;36525;49.398;7.614;2022-10-15T13:45:30;15.20;99.90
50570;DHT22;36525;49.398;7.614;2022-10-15T13:47:57;15.20;99.90
50570;DHT22;36525;49.398;7.614;2022-10-15T13:50:30;15.20;99.90
50570;DHT22;36525;49.398;7.614;2022-10-15T13:53:26;15.20;99.90
50570;DHT22;36525;49.398;7.614;2022-10-15T13:55:58;15.20;99.90
50570;DHT22;36525;49.398;7.614;2022-10-15T13:58:28;15.20;99.90
50570;DHT22;36525;49.398;7.614;2022-10-15T14:00:58;15.30;99.90
50570;DHT22;36525;49.398;7.614;2022-10-15T14:03:34;15.30;99.90
50570;DHT22;36525;49.398;7.614;2022-10-15T14:06:13;15.30;99.90
50570;DHT22;36525;49.398;7.614;2022-10-15T14:08:45;15.30;99.90
50570;DHT22;36525;49.398;7.614;2022-10-15T14:11:13;15.30;99.90
50570;DHT22;36525;49.398;7.614;2022-10-15T14:13:46;15.30;99.90
50570;DHT22;36525;49.398;7.614;2022-10-15T14:16:27;15.30;99.90
50570;DHT22;36525;49.398;7.614;2022-10-15T14:21:33;15.30;99.90
50570;DHT22;36525;49.398;7.614;2022-10-15T14:26:47;15.40;99.90
50570;DHT22;36525;49.398;7.614;2022-10-15T14:29:27;15.40;99.90
50570;DHT22;36525;49.398;7.614;2022-10-15T14:31:55;15.40;99.90
50570;DHT22;36525;49.398;7.614;2022-10-15T14:37:39;15.40;99.90
50570;DHT22;36525;49.398;7.614;2022-10-15T14:45:27;15.40;99.90
50570;DHT22;36525;49.398;7.614;2022-10-15T14:48:27;15.40;99.90
50570;DHT22;36525;49.398;7.614;2022-10-15T14:50:59;15.40;99.90
50570;DHT22;36525;49.398;7.614;2022-10-15T14:53:30;15.40;99.90
50570;DHT22;36525;49.398;7.614;2022-10-15T14:56:07;15.40;99.90
50570;DHT22;36525;49.398;7.614;2022-10-15T14:58:36;15.40;99.90
50570;DHT22;36525;49.398;7.614;2022-10-15T15:01:06;15.40;99.90
50570;DHT22;36525;49.398;7.614;2022-10-15T15:03:42;15.40;99.90
50570;DHT22;36525;49.398;7.614;2022-10-15T15:06:10;15.40;99.90
50570;DHT22;36525;49.398;7.614;2022-10-15T15:08:36;15.50;99.90
50570;DHT22;36525;49.398;7.614;2022-10-15T15:11:06;15.40;99.90
50570;DHT22;36525;49.398;7.614;2022-10-15T15:13:41;15.50;99.90
50570;DHT22;36525;49.398;7.614;2022-10-15T15:16:14;15.50;99.90
50570;DHT22;36525;49.398;7.614;2022-10-15T15:18:42;15.50;99.90
50570;DHT22;36525;49.398;7.614;2022-10-15T15:21:16;15.50;99.90
50570;DHT22;36525;49.398;7.614;2022-10-15T15:23:46;15.50;99.90
50570;DHT22;36525;49.398;7.614;2022-10-15T15:26:14;15.50;99.90
50570;DHT22;36525;49.398;7.614;2022-10-15T15:28:41;15.50;99.90
50570;DHT22;36525;49.398;7.614;2022-10-15T15:31:14;15.40;99.90
50570;DHT22;36525;49.398;7.614;2022-10-15T15:33:43;15.40;99.90
50570;DHT22;36525;49.398;7.614;2022-10-15T15:36:12;15.40;99.90
50570;DHT22;36525;49.398;7.614;2022-10-15T15:38:48;15.30;99.90
50570;DHT22;36525;49.398;7.614;2022-10-15T15:41:18;15.30;99.90
50570;DHT22;36525;49.398;7.614;2022-10-15T15:43:47;15.30;99.90
50570;DHT22;36525;49.398;7.614;2022-10-15T15:46:15;15.30;99.90
50570;DHT22;36525;49.398;7.614;2022-10-15T15:48:43;15.30;99.90
50570;DHT22;36525;49.398;7.614;2022-10-15T15:53:50;15.30;99.90
50570;DHT22;36525;49.398;7.614;2022-10-15T15:56:17;15.30;99.90
50570;DHT22;36525;49.398;7.614;2022-10-15T15:58:44;15.20;99.90
50570;DHT22;36525;49.398;7.614;2022-10-15T16:01:11;15.30;99.90
50570;DHT22;36525;49.398;7.614;2022-10-15T16:03:38;15.30;99.90
50570;DHT22;36525;49.398;7.614;2022-10-15T16:06:05;15.20;99.90
50570;DHT22;36525;49.398;7.614;2022-10-15T16:08:34;15.20;99.90
50570;DHT22;36525;49.398;7.614;2022-10-15T16:11:02;15.20;99.90
50570;DHT22;36525;49.398;7.614;2022-10-15T16:13:30;15.20;99.90
50570;DHT22;36525;49.398;7.614;2022-10-15T16:15:58;15.20;99.90
50570;DHT22;36525;49.398;7.614;2022-10-15T16:18:24;15.20;99.90
50570;DHT22;36525;49.398;7.614;2022-10-15T16:20:51;15.20;99.90
50570;DHT22;36525;49.398;7.614;2022-10-15T16:23:18;15.20;99.90
50570;DHT22;36525;49.398;7.614;2022-10-15T16:25:45;15.20;99.90
50570;DHT22;36525;49.398;7.614;2022-10-15T16:28:12;15.20;99.90
50570;DHT22;36525;49.398;7.614;2022-10-15T16:30:39;15.20;99.90
50570;DHT22;36525;49.398;7.614;2022-10-15T16:33:06;15.10;99.90
50570;DHT22;36525;49.398;7.614;2022-10-15T16:35:34;15.10;99.90
50570;DHT22;36525;49.398;7.614;2022-10-15T16:38:01;15.10;99.90
50570;DHT22;36525;49.398;7.614;2022-10-15T16:40:28;15.10;99.90
50570;DHT22;36525;49.398;7.614;2022-10-15T16:42:55;15.10;99.90
50570;DHT22;36525;49.398;7.614;2022-10-15T16:45:22;15.10;99.90
50570;DHT22;36525;49.398;7.614;2022-10-15T16:47:49;15.10;99.90
50570;DHT22;36525;49.398;7.614;2022-10-15T16:50:16;15.10;99.90
50570;DHT22;36525;49.398;7.614;2022-10-15T16:52:43;15.10;99.90
50570;DHT22;36525;49.398;7.614;2022-10-15T16:55:10;15.10;99.90
50570;DHT22;36525;49.398;7.614;2022-10-15T16:57:37;15.10;99.90
50570;DHT22;36525;49.398;7.614;2022-10-15T17:00:04;15.20;99.90
50570;DHT22;36525;49.398;7.614;2022-10-15T17:02:31;15.10;99.90
50570;DHT22;36525;49.398;7.614;2022-10-15T17:04:58;15.20;99.90
50570;DHT22;36525;49.398;7.614;2022-10-15T17:07:25;15.20;99.90
50570;DHT22;36525;49.398;7.614;2022-10-15T17:09:53;15.20;99.90
50570;DHT22;36525;49.398;7.614;2022-10-15T17:12:20;15.10;99.90
50570;DHT22;36525;49.398;7.614;2022-10-15T17:14:49;15.10;99.90
50570;DHT22;36525;49.398;7.614;2022-10-15T17:17:17;15.20;99.90
50570;DHT22;36525;49.398;7.614;2022-10-15T17:19:44;15.20;99.90
50570;DHT22;36525;49.398;7.614;2022-10-15T17:22:11;15.20;99.90
50570;DHT22;36525;49.398;7.614;2022-10-15T17:24:38;15.20;99.90
50570;DHT22;36525;49.398;7.614;2022-10-15T17:27:05;15.30;99.90
50570;DHT22;36525;49.398;7.614;2022-10-15T17:29:31;15.20;99.90
50570;DHT22;36525;49.398;7.614;2022-10-15T17:32:00;15.30;99.90
50570;DHT22;36525;49.398;7.614;2022-10-15T17:34:28;15.30;99.90
50570;DHT22;36525;49.398;7.614;2022-10-15T17:36:55;15.20;99.90
50570;DHT22;36525;49.398;7.614;2022-10-15T17:39:22;15.20;99.90
50570;DHT22;36525;49.398;7.614;2022-10-15T17:41:50;15.20;99.90
50570;DHT22;36525;49.398;7.614;2022-10-15T17:44:18;15.30;99.90
50570;DHT22;36525;49.398;7.614;2022-10-15T17:46:46;15.30;99.90
50570;DHT22;36525;49.398;7.614;2022-10-15T17:49:17;15.30;99.90
50570;DHT22;36525;49.398;7.614;2022-10-15T17:51:45;15.30;99.90
50570;DHT22;36525;49.398;7.614;2022-10-15T17:54:13;15.20;99.90
50570;DHT22;36525;49.398;7.614;2022-10-15T17:56:40;15.20;99.90
50570;DHT22;36525;49.398;7.614;2022-10-15T17:59:10;15.20;99.90
50570;DHT22;36525;49.398;7.614;2022-10-15T18:01:40;15.30;99.90
50570;DHT22;36525;49.398;7.614;2022-10-15T18:04:27;15.30;99.90
50570;DHT22;36525;49.398;7.614;2022-10-15T18:06:54;15.30;99.90